Time;durP1;ratioP1;P1;durP2;ratioP2;P2;SDS_P1;SDS_P2;PMS_P1;PMS_P2;Temp;Humidity;BMP_temperature;BMP_pressure;BME280_temperature;BME280_humidity;BME280_pressure;Samples;Min_cycle;Max_cycle;Signal;HPM_P1;HPM_P2
2022/06/26 00:00:21;;;;;;;;;;;19.60;99.90;;;;;;5011178;28;19918;-62
2022/06/26 00:02:47;;;;;;;;;;;19.60;99.90;;;;;;5015218;28;19921;-62
2022/06/26 00:05:13;;;;;;;;;;;19.60;99.90;;;;;;5019682;28;19920;-62
2022/06/26 00:07:38;;;;;;;;;;;19.70;99.90;;;;;;5019765;28;19917;-62
2022/06/26 00:10:04;;;;;;;;;;;19.70;99.90;;;;;;5025872;28;19948;-62
2022/06/26 00:12:30;;;;;;;;;;;19.60;99.90;;;;;;5027034;28;19996;-62
2022/06/26 00:14:56;;;;;;;;;;;19.70;99.90;;;;;;5018048;28;20422;-62
2022/06/26 00:17:21;;;;;;;;;;;19.70;99.90;;;;;;5027665;28;19941;-62
2022/06/26 00:19:47;;;;;;;;;;;19.80;99.90;;;;;;5026309;28;19913;-62
2022/06/26 00:22:12;;;;;;;;;;;19.90;99.90;;;;;;5028308;28;19959;-62
2022/06/26 00:24:38;;;;;;;;;;;20.00;99.90;;;;;;5020745;28;19917;-62
2022/06/26 00:27:06;;;;;;;;;;;20.30;99.90;;;;;;5022821;28;19916;-62
2022/06/26 00:29:32;;;;;;;;;;;20.20;99.90;;;;;;5020044;28;20373;-62
2022/06/26 00:31:57;;;;;;;;;;;20.30;99.90;;;;;;5026205;28;19921;-62
2022/06/26 00:34:23;;;;;;;;;;;20.40;99.90;;;;;;5018304;28;19913;-62
2022/06/26 00:36:49;;;;;;;;;;;20.30;99.90;;;;;;5020563;28;19967;-62
2022/06/26 00:39:14;;;;;;;;;;;20.40;99.90;;;;;;5015812;28;20415;-62
2022/06/26 00:41:40;;;;;;;;;;;20.40;99.90;;;;;;5023570;28;19928;-62
2022/06/26 00:44:13;;;;;;;;;;;20.20;99.90;;;;;;5010428;28;20373;-62
2022/06/26 00:46:38;;;;;;;;;;;20.10;99.90;;;;;;5029468;28;19909;-62
2022/06/26 00:49:04;;;;;;;;;;;20.00;99.90;;;;;;5023269;28;20265;-62
2022/06/26 00:51:29;;;;;;;;;;;19.80;99.90;;;;;;5026010;28;19910;-62
2022/06/26 00:53:55;;;;;;;;;;;19.70;99.90;;;;;;5018451;28;19914;-62
2022/06/26 00:56:20;;;;;;;;;;;19.70;99.90;;;;;;5027293;28;20012;-62
2022/06/26 00:58:46;;;;;;;;;;;19.50;99.90;;;;;;5022288;28;20387;-62
2022/06/26 01:01:11;;;;;;;;;;;19.50;99.90;;;;;;5021029;28;19914;-62
2022/06/26 01:03:37;;;;;;;;;;;19.40;99.90;;;;;;5019100;28;19922;-62
2022/06/26 01:06:05;;;;;;;;;;;19.40;99.90;;;;;;5021223;28;19921;-62
2022/06/26 01:08:30;;;;;;;;;;;19.30;99.90;;;;;;5024023;28;19913;-62
2022/06/26 01:10:56;;;;;;;;;;;19.40;99.90;;;;;;5023846;28;19959;-62
2022/06/26 01:13:21;;;;;;;;;;;19.30;99.90;;;;;;5026493;28;19909;-62
2022/06/26 01:15:47;;;;;;;;;;;19.40;99.90;;;;;;5017896;28;19976;-62
2022/06/26 01:18:13;;;;;;;;;;;19.30;99.90;;;;;;5022770;28;20421;-62
2022/06/26 01:20:39;;;;;;;;;;;19.30;99.90;;;;;;5022225;28;19920;-62
2022/06/26 01:23:05;;;;;;;;;;;19.30;99.90;;;;;;5019998;28;19944;-62
2022/06/26 01:25:40;;;;;;;;;;;19.30;99.90;;;;;;5023513;28;19917;-62
2022/06/26 01:28:06;;;;;;;;;;;19.10;99.90;;;;;;5017910;28;19909;-62
2022/06/26 01:30:31;;;;;;;;;;;19.00;99.90;;;;;;5006944;28;19963;-62
2022/06/26 01:32:57;;;;;;;;;;;18.90;99.90;;;;;;5009987;28;20015;-62
2022/06/26 01:35:22;;;;;;;;;;;19.00;99.90;;;;;;5013418;28;19910;-62
2022/06/26 01:37:48;;;;;;;;;;;19.00;99.90;;;;;;5023896;28;19936;-62
2022/06/26 01:40:13;;;;;;;;;;;19.00;99.90;;;;;;5013914;28;19910;-62
2022/06/26 01:42:39;;;;;;;;;;;18.90;99.90;;;;;;5024243;28;20348;-62
2022/06/26 01:45:05;;;;;;;;;;;18.90;99.90;;;;;;5015807;28;20003;-63
2022/06/26 01:47:30;;;;;;;;;;;18.80;99.90;;;;;;5019991;28;19941;-63
2022/06/26 01:49:56;;;;;;;;;;;18.70;99.90;;;;;;5022905;28;19909;-62
2022/06/26 01:52:21;;;;;;;;;;;18.60;99.90;;;;;;5021775;28;19916;-62
2022/06/26 01:54:47;;;;;;;;;;;18.40;99.90;;;;;;5018339;28;19932;-62
2022/06/26 01:57:12;;;;;;;;;;;18.30;99.90;;;;;;5014923;28;19909;-62
2022/06/26 01:59:38;;;;;;;;;;;18.20;99.90;;;;;;5023237;28;19913;-62
2022/06/26 02:02:03;;;;;;;;;;;18.20;99.90;;;;;;5019037;28;20135;-62
2022/06/26 02:04:29;;;;;;;;;;;18.10;99.90;;;;;;5023380;28;19924;-63
2022/06/26 02:06:55;;;;;;;;;;;17.90;99.90;;;;;;5003599;28;19913;-63
2022/06/26 02:14:49;;;;;;;;;;;18.10;99.90;;;;;;5019879;28;19924;-62
2022/06/26 02:17:15;;;;;;;;;;;18.20;99.90;;;;;;5020246;28;20365;-62
2022/06/26 02:19:40;;;;;;;;;;;18.20;99.90;;;;;;5017761;28;20369;-62
2022/06/26 02:22:06;;;;;;;;;;;18.10;99.90;;;;;;5024830;28;19917;-62
2022/06/26 02:24:31;;;;;;;;;;;18.00;99.90;;;;;;5018263;28;19913;-62
2022/06/26 02:26:57;;;;;;;;;;;17.90;99.90;;;;;;5022283;28;20004;-63
2022/06/26 02:29:22;;;;;;;;;;;17.80;99.90;;;;;;5015973;28;19909;-65
2022/06/26 02:31:48;;;;;;;;;;;17.70;99.90;;;;;;5018410;28;19917;-63
2022/06/26 02:34:14;;;;;;;;;;;17.60;99.90;;;;;;5014499;28;19913;-63
2022/06/26 02:36:39;;;;;;;;;;;17.50;99.90;;;;;;5020042;28;20420;-62
2022/06/26 02:39:05;;;;;;;;;;;17.60;99.90;;;;;;5015167;28;20807;-62
2022/06/26 02:41:30;;;;;;;;;;;17.80;99.90;;;;;;5027391;28;20431;-62
2022/06/26 02:43:56;;;;;;;;;;;17.70;99.90;;;;;;5019155;28;19917;-62
2022/06/26 02:46:21;;;;;;;;;;;17.50;99.90;;;;;;5014164;28;19917;-62
2022/06/26 02:48:47;;;;;;;;;;;17.50;99.90;;;;;;5016162;28;19944;-62
2022/06/26 02:51:12;;;;;;;;;;;17.70;99.90;;;;;;5016840;28;20021;-62
2022/06/26 02:53:38;;;;;;;;;;;17.60;99.90;;;;;;5022010;28;20357;-62
2022/06/26 02:56:03;;;;;;;;;;;17.60;99.90;;;;;;5015075;28;19909;-62
2022/06/26 02:58:29;;;;;;;;;;;17.40;99.90;;;;;;5020314;28;20304;-62
2022/06/26 03:00:54;;;;;;;;;;;17.40;99.90;;;;;;5005640;28;19920;-62
2022/06/26 03:03:20;;;;;;;;;;;17.50;99.90;;;;;;5016322;28;19921;-62
2022/06/26 03:05:46;;;;;;;;;;;17.40;99.90;;;;;;5021952;28;19990;-62
2022/06/26 03:08:11;;;;;;;;;;;17.30;99.90;;;;;;5018846;28;20216;-62
2022/06/26 03:10:37;;;;;;;;;;;17.20;99.90;;;;;;5017046;28;20368;-63
2022/06/26 03:13:03;;;;;;;;;;;17.10;99.90;;;;;;5021358;28;19909;-63
2022/06/26 03:15:28;;;;;;;;;;;17.00;99.90;;;;;;5019248;28;19909;-63
2022/06/26 03:17:54;;;;;;;;;;;16.90;99.90;;;;;;5014898;28;20004;-63
2022/06/26 03:20:20;;;;;;;;;;;16.80;99.90;;;;;;5022294;28;19913;-63
2022/06/26 03:22:46;;;;;;;;;;;16.70;99.90;;;;;;5018999;28;19913;-63
2022/06/26 03:25:11;;;;;;;;;;;16.60;99.90;;;;;;5021439;28;19932;-63
2022/06/26 03:27:37;;;;;;;;;;;16.50;99.90;;;;;;5017907;28;20385;-63
2022/06/26 03:30:03;;;;;;;;;;;16.50;99.90;;;;;;5023931;28;19920;-63
2022/06/26 03:32:29;;;;;;;;;;;16.50;99.90;;;;;;5004447;28;19917;-63
2022/06/26 03:34:54;;;;;;;;;;;16.40;99.90;;;;;;5022034;28;19909;-63
2022/06/26 03:37:20;;;;;;;;;;;16.30;99.90;;;;;;5023322;28;19913;-63
2022/06/26 03:39:45;;;;;;;;;;;16.20;99.90;;;;;;5021252;28;19921;-63
2022/06/26 03:42:11;;;;;;;;;;;16.20;99.90;;;;;;5023768;28;19941;-63
2022/06/26 03:44:36;;;;;;;;;;;16.20;99.90;;;;;;5026380;28;20482;-63
2022/06/26 03:47:02;;;;;;;;;;;16.30;99.90;;;;;;5020102;28;19909;-63
2022/06/26 03:49:28;;;;;;;;;;;16.30;99.90;;;;;;5025787;28;20000;-63
2022/06/26 03:51:53;;;;;;;;;;;16.40;99.90;;;;;;5022179;28;20321;-63
2022/06/26 03:54:19;;;;;;;;;;;16.30;99.90;;;;;;5026258;28;20369;-63
2022/06/26 03:56:45;;;;;;;;;;;16.40;99.90;;;;;;5019686;28;19996;-63
2022/06/26 03:59:11;;;;;;;;;;;16.60;99.90;;;;;;5024221;28;19913;-63
2022/06/26 04:01:36;;;;;;;;;;;16.70;99.90;;;;;;5013506;28;20023;-63
2022/06/26 04:04:02;;;;;;;;;;;16.90;99.90;;;;;;5021937;28;19924;-63
2022/06/26 04:06:27;;;;;;;;;;;17.00;99.90;;;;;;5022604;28;20405;-63
2022/06/26 04:08:53;;;;;;;;;;;16.90;99.90;;;;;;5002663;28;20358;-63
2022/06/26 04:11:19;;;;;;;;;;;17.00;99.90;;;;;;5021174;28;20316;-63
2022/06/26 04:13:44;;;;;;;;;;;17.20;99.90;;;;;;5025891;28;19909;-62
2022/06/26 04:16:10;;;;;;;;;;;17.40;99.90;;;;;;5020071;28;19952;-62
2022/06/26 04:18:35;;;;;;;;;;;17.60;99.90;;;;;;5022191;28;19960;-62
2022/06/26 04:21:01;;;;;;;;;;;17.90;99.90;;;;;;5004139;28;19917;-62
2022/06/26 04:23:27;;;;;;;;;;;18.10;99.90;;;;;;5007348;28;20349;-63
2022/06/26 04:25:53;;;;;;;;;;;18.10;99.90;;;;;;5022199;28;19909;-63
2022/06/26 04:28:18;;;;;;;;;;;17.90;99.90;;;;;;5007741;28;20016;-63
2022/06/26 04:30:44;;;;;;;;;;;17.90;99.90;;;;;;5017940;28;19929;-63
2022/06/26 04:33:09;;;;;;;;;;;17.80;99.90;;;;;;5024036;28;19913;-63
2022/06/26 04:35:35;;;;;;;;;;;17.80;99.90;;;;;;5022055;28;20424;-63
2022/06/26 04:38:01;;;;;;;;;;;17.90;99.90;;;;;;5021102;28;19913;-63
2022/06/26 04:40:26;;;;;;;;;;;18.00;99.90;;;;;;5018399;28;20059;-63
2022/06/26 04:42:52;;;;;;;;;;;18.10;99.90;;;;;;5006058;28;19917;-63
2022/06/26 04:45:18;;;;;;;;;;;18.10;99.90;;;;;;5022627;28;19909;-63
2022/06/26 04:47:43;;;;;;;;;;;18.20;99.90;;;;;;5022354;28;19999;-63
2022/06/26 04:50:09;;;;;;;;;;;18.20;99.90;;;;;;5011615;28;19913;-63
2022/06/26 04:52:34;;;;;;;;;;;18.20;99.90;;;;;;5021338;28;20149;-63
2022/06/26 04:55:00;;;;;;;;;;;18.20;99.90;;;;;;5022267;28;20270;-62
2022/06/26 04:57:25;;;;;;;;;;;18.20;99.90;;;;;;5025445;28;19924;-62
2022/06/26 04:59:51;;;;;;;;;;;18.10;99.90;;;;;;5024841;28;20011;-62
2022/06/26 05:02:17;;;;;;;;;;;18.20;99.90;;;;;;5026038;28;19929;-63
2022/06/26 05:04:42;;;;;;;;;;;18.10;99.90;;;;;;5021659;28;19909;-62
2022/06/26 05:07:08;;;;;;;;;;;18.10;99.90;;;;;;5022443;28;20391;-62
2022/06/26 05:09:33;;;;;;;;;;;18.10;99.90;;;;;;5023732;28;20483;-62
2022/06/26 05:11:59;;;;;;;;;;;18.20;99.90;;;;;;5021202;28;19913;-62
2022/06/26 05:14:25;;;;;;;;;;;18.20;99.90;;;;;;5000336;28;19910;-62
2022/06/26 05:16:50;;;;;;;;;;;18.30;99.90;;;;;;5023845;28;19913;-62
2022/06/26 05:19:16;;;;;;;;;;;18.30;99.90;;;;;;5023626;28;19963;-62
2022/06/26 05:21:41;;;;;;;;;;;18.40;99.90;;;;;;5023002;28;20342;-62
2022/06/26 05:24:07;;;;;;;;;;;18.60;99.90;;;;;;5022635;28;19917;-62
2022/06/26 05:26:34;;;;;;;;;;;18.70;99.90;;;;;;5005772;28;19936;-62
2022/06/26 05:28:59;;;;;;;;;;;18.90;99.90;;;;;;5024676;28;20004;-62
2022/06/26 05:31:25;;;;;;;;;;;18.80;99.90;;;;;;5019435;28;20425;-62
2022/06/26 05:33:50;;;;;;;;;;;18.90;99.90;;;;;;5017042;28;19921;-62
2022/06/26 05:36:16;;;;;;;;;;;19.00;99.90;;;;;;5007566;28;19917;-63
2022/06/26 05:38:42;;;;;;;;;;;19.10;99.90;;;;;;5000262;28;19972;-62
2022/06/26 05:41:07;;;;;;;;;;;19.20;99.90;;;;;;5021704;28;19917;-63
2022/06/26 05:43:33;;;;;;;;;;;19.30;99.90;;;;;;5022390;28;20016;-63
2022/06/26 05:45:59;;;;;;;;;;;19.40;99.90;;;;;;5022738;28;19915;-63
2022/06/26 05:48:25;;;;;;;;;;;19.40;99.90;;;;;;5022946;28;19909;-63
2022/06/26 05:50:50;;;;;;;;;;;19.50;99.90;;;;;;5018748;28;19913;-63
2022/06/26 05:53:16;;;;;;;;;;;19.70;99.90;;;;;;5020825;28;19909;-62
2022/06/26 05:55:42;;;;;;;;;;;19.70;99.90;;;;;;5024574;28;19909;-62
2022/06/26 05:58:08;;;;;;;;;;;20.10;99.90;;;;;;5020030;28;20000;-62
2022/06/26 06:00:33;;;;;;;;;;;20.50;99.90;;;;;;5023396;28;19917;-62
2022/06/26 06:02:59;;;;;;;;;;;20.60;99.90;;;;;;5022011;28;19957;-62
2022/06/26 06:05:25;;;;;;;;;;;20.60;99.90;;;;;;5022760;28;19960;-62
2022/06/26 06:07:51;;;;;;;;;;;20.60;99.90;;;;;;5003283;28;19976;-62
2022/06/26 06:10:19;;;;;;;;;;;20.40;99.90;;;;;;5020994;28;19909;-62
2022/06/26 06:12:45;;;;;;;;;;;20.60;99.90;;;;;;5022055;28;19937;-62
2022/06/26 06:15:11;;;;;;;;;;;20.60;99.90;;;;;;5022884;28;20004;-62
2022/06/26 06:17:37;;;;;;;;;;;20.90;99.90;;;;;;5017268;28;20000;-62
2022/06/26 06:20:04;;;;;;;;;;;21.20;99.90;;;;;;5022464;28;19909;-62
2022/06/26 06:22:30;;;;;;;;;;;21.40;99.90;;;;;;5020573;28;19945;-62
2022/06/26 06:24:55;;;;;;;;;;;21.40;99.90;;;;;;5004474;28;19967;-62
2022/06/26 06:27:21;;;;;;;;;;;21.30;99.90;;;;;;5023219;28;20434;-62
2022/06/26 06:29:46;;;;;;;;;;;21.20;99.90;;;;;;5021839;28;20203;-63
2022/06/26 06:32:12;;;;;;;;;;;21.00;99.90;;;;;;5019409;28;19926;-63
2022/06/26 06:34:37;;;;;;;;;;;20.80;99.90;;;;;;5019975;28;20008;-63
2022/06/26 06:37:03;;;;;;;;;;;20.70;99.90;;;;;;5020303;28;19916;-63
2022/06/26 06:39:29;;;;;;;;;;;20.40;99.90;;;;;;5018410;28;20075;-63
2022/06/26 06:41:54;;;;;;;;;;;20.10;99.90;;;;;;5021646;28;19909;-63
2022/06/26 06:44:20;;;;;;;;;;;20.00;99.90;;;;;;5019894;28;20288;-63
2022/06/26 06:46:45;;;;;;;;;;;19.70;99.90;;;;;;5016999;28;20312;-63
2022/06/26 06:49:11;;;;;;;;;;;19.60;99.90;;;;;;5024245;28;19984;-63
2022/06/26 06:51:36;;;;;;;;;;;19.70;99.90;;;;;;5024248;28;20691;-63
2022/06/26 06:54:02;;;;;;;;;;;19.80;99.90;;;;;;5018429;28;19923;-63
2022/06/26 06:56:28;;;;;;;;;;;19.70;99.90;;;;;;5017698;28;20014;-63
2022/06/26 06:58:53;;;;;;;;;;;19.80;99.90;;;;;;5020890;28;20145;-63
2022/06/26 07:01:19;;;;;;;;;;;19.80;99.90;;;;;;5022223;28;19924;-63
2022/06/26 07:03:44;;;;;;;;;;;19.50;99.90;;;;;;5024890;28;19972;-63
2022/06/26 07:06:10;;;;;;;;;;;19.50;99.90;;;;;;5024023;28;19909;-63
2022/06/26 07:08:35;;;;;;;;;;;19.60;99.90;;;;;;5027157;28;19913;-63
2022/06/26 07:11:01;;;;;;;;;;;19.70;99.90;;;;;;5024593;28;19917;-63
2022/06/26 07:13:27;;;;;;;;;;;19.80;99.90;;;;;;5027306;28;19952;-63
2022/06/26 07:15:52;;;;;;;;;;;19.80;99.90;;;;;;5021989;28;20297;-63
2022/06/26 07:18:18;;;;;;;;;;;20.00;99.90;;;;;;5023078;28;19909;-64
2022/06/26 07:20:43;;;;;;;;;;;19.90;99.90;;;;;;5033136;28;20007;-64
2022/06/26 07:23:09;;;;;;;;;;;19.90;99.90;;;;;;5024341;28;19913;-63
2022/06/26 07:25:34;;;;;;;;;;;19.80;99.90;;;;;;5024968;28;19909;-63
2022/06/26 07:28:00;;;;;;;;;;;19.70;99.90;;;;;;5016300;28;19972;-64
2022/06/26 07:30:25;;;;;;;;;;;19.80;99.90;;;;;;5022358;28;19960;-64
2022/06/26 07:32:51;;;;;;;;;;;19.60;99.90;;;;;;5029404;28;20291;-63
2022/06/26 07:35:17;;;;;;;;;;;19.50;99.90;;;;;;5021659;28;19916;-63
2022/06/26 07:37:42;;;;;;;;;;;19.50;99.90;;;;;;5027134;28;20367;-63
2022/06/26 07:40:08;;;;;;;;;;;19.80;99.90;;;;;;5025591;28;19909;-63
2022/06/26 07:42:33;;;;;;;;;;;19.80;99.90;;;;;;5020787;28;19913;-63
2022/06/26 07:44:59;;;;;;;;;;;19.80;99.90;;;;;;5024313;28;20384;-63
2022/06/26 07:47:25;;;;;;;;;;;20.00;99.90;;;;;;5024361;28;20304;-63
2022/06/26 07:49:50;;;;;;;;;;;20.40;99.90;;;;;;5028572;28;20014;-64
2022/06/26 07:52:16;;;;;;;;;;;20.80;99.90;;;;;;5029083;28;20362;-64
2022/06/26 07:54:41;;;;;;;;;;;20.70;99.90;;;;;;5027871;28;19913;-64
2022/06/26 07:57:07;;;;;;;;;;;20.40;99.90;;;;;;5030604;28;19909;-63
2022/06/26 07:59:33;;;;;;;;;;;20.40;99.90;;;;;;5030958;28;19909;-63
2022/06/26 08:01:59;;;;;;;;;;;20.70;99.90;;;;;;5024085;28;19967;-63
2022/06/26 08:04:25;;;;;;;;;;;21.00;99.90;;;;;;5008798;28;19925;-63
2022/06/26 08:06:50;;;;;;;;;;;21.30;99.90;;;;;;5026339;28;20007;-64
2022/06/26 08:09:16;;;;;;;;;;;21.10;99.90;;;;;;5011108;28;20747;-64
2022/06/26 08:11:41;;;;;;;;;;;21.50;99.90;;;;;;5024380;28;19929;-64
2022/06/26 08:14:07;;;;;;;;;;;22.20;99.90;;;;;;5021247;28;19914;-64
2022/06/26 08:16:33;;;;;;;;;;;23.30;99.90;;;;;;5023083;28;19910;-63
2022/06/26 08:18:58;;;;;;;;;;;23.70;99.90;;;;;;5022512;28;19913;-61
2022/06/26 08:24:07;;;;;;;;;;;24.60;99.90;;;;;;5028667;28;19920;-62
2022/06/26 08:26:33;;;;;;;;;;;25.20;99.90;;;;;;5032057;28;19912;-63
2022/06/26 08:28:58;;;;;;;;;;;26.50;96.90;;;;;;5030171;28;20246;-64
2022/06/26 08:31:24;;;;;;;;;;;27.60;94.50;;;;;;5018939;28;19972;-63
2022/06/26 08:33:50;;;;;;;;;;;27.50;94.30;;;;;;5024773;28;20024;-63
2022/06/26 08:36:15;;;;;;;;;;;26.80;93.50;;;;;;5030974;28;19913;-63
2022/06/26 08:38:41;;;;;;;;;;;26.10;95.60;;;;;;5025166;28;20349;-63
2022/06/26 08:41:07;;;;;;;;;;;25.80;97.60;;;;;;5030200;28;19913;-63
2022/06/26 08:43:33;;;;;;;;;;;26.50;97.20;;;;;;5015727;28;19917;-63
2022/06/26 08:46:03;;;;;;;;;;;26.50;94.50;;;;;;5024261;28;20377;-63
2022/06/26 08:48:34;;;;;;;;;;;25.50;96.90;;;;;;5024989;28;19909;-63
2022/06/26 08:51:00;;;;;;;;;;;25.10;97.40;;;;;;5022560;28;19913;-63
2022/06/26 08:53:25;;;;;;;;;;;25.40;98.30;;;;;;5021873;28;20621;-63
2022/06/26 08:55:51;;;;;;;;;;;26.80;94.80;;;;;;5020958;28;19979;-63
2022/06/26 08:58:16;;;;;;;;;;;26.60;93.70;;;;;;5023240;28;19976;-63
2022/06/26 09:00:46;;;;;;;;;;;25.50;95.90;;;;;;5004611;28;19929;-63
2022/06/26 09:03:12;;;;;;;;;;;24.60;96.80;;;;;;5019104;28;20512;-63
2022/06/26 09:05:37;;;;;;;;;;;23.40;99.90;;;;;;5022612;28;19909;-63
2022/06/26 09:08:03;;;;;;;;;;;24.00;99.90;;;;;;5019820;28;19941;-62
2022/06/26 09:10:29;;;;;;;;;;;24.20;99.90;;;;;;5027370;28;19992;-62
2022/06/26 09:12:56;;;;;;;;;;;24.30;99.60;;;;;;5024817;28;20360;-62
2022/06/26 09:15:23;;;;;;;;;;;24.10;99.90;;;;;;5026555;28;20395;-62
2022/06/26 09:18:01;;;;;;;;;;;24.00;99.40;;;;;;5015839;28;19921;-62
2022/06/26 09:20:29;;;;;;;;;;;23.30;99.90;;;;;;5018275;28;19913;-60
2022/06/26 09:22:55;;;;;;;;;;;23.00;99.90;;;;;;5019346;28;19917;-60
2022/06/26 09:25:31;;;;;;;;;;;22.70;99.90;;;;;;5020086;28;19913;-60
2022/06/26 09:28:03;;;;;;;;;;;22.60;99.90;;;;;;5016716;28;19913;-60
2022/06/26 09:30:29;;;;;;;;;;;22.60;99.90;;;;;;5023621;28;20004;-62
2022/06/26 09:32:54;;;;;;;;;;;22.20;99.90;;;;;;5026918;28;19977;-62
2022/06/26 09:35:24;;;;;;;;;;;21.90;99.90;;;;;;5018071;28;19913;-62
2022/06/26 09:37:49;;;;;;;;;;;21.80;99.90;;;;;;5007628;28;20000;-63
2022/06/26 09:40:16;;;;;;;;;;;21.80;99.90;;;;;;5016310;28;20012;-63
2022/06/26 09:42:41;;;;;;;;;;;21.80;99.90;;;;;;5016467;28;20025;-63
2022/06/26 09:45:10;;;;;;;;;;;22.00;99.90;;;;;;5017145;28;20318;-63
2022/06/26 09:47:36;;;;;;;;;;;21.90;99.90;;;;;;5023669;28;19964;-63
2022/06/26 09:50:02;;;;;;;;;;;21.70;99.90;;;;;;5018160;28;19925;-63
2022/06/26 09:52:29;;;;;;;;;;;21.40;99.90;;;;;;5018287;28;20357;-63
2022/06/26 09:54:55;;;;;;;;;;;21.40;99.90;;;;;;5018453;28;19913;-63
2022/06/26 09:57:21;;;;;;;;;;;21.40;99.90;;;;;;5013167;28;20285;-63
2022/06/26 09:59:46;;;;;;;;;;;21.40;99.90;;;;;;5020410;28;19916;-63
2022/06/26 10:07:44;;;;;;;;;;;21.50;99.90;;;;;;5021062;28;20022;-63
2022/06/26 10:10:10;;;;;;;;;;;21.60;99.90;;;;;;5016335;28;19989;-63
2022/06/26 10:12:36;;;;;;;;;;;21.90;99.90;;;;;;5017084;28;19941;-63
2022/06/26 10:15:02;;;;;;;;;;;22.00;99.90;;;;;;5018351;28;20514;-63
2022/06/26 10:17:27;;;;;;;;;;;22.00;99.90;;;;;;5015431;28;20567;-64
2022/06/26 10:19:58;;;;;;;;;;;22.20;99.90;;;;;;5029417;28;20368;-63
2022/06/26 10:22:24;;;;;;;;;;;22.20;99.90;;;;;;5022546;28;19913;-64
2022/06/26 10:24:55;;;;;;;;;;;21.50;99.90;;;;;;5020689;28;19963;-64
2022/06/26 10:27:29;;;;;;;;;;;21.50;99.90;;;;;;5020843;28;19917;-63
2022/06/26 10:30:10;;;;;;;;;;;21.80;99.90;;;;;;5018820;28;20425;-63
2022/06/26 10:32:36;;;;;;;;;;;21.60;99.90;;;;;;5018651;28;19945;-63
2022/06/26 10:35:03;;;;;;;;;;;21.70;99.90;;;;;;5003522;28;19913;-63
2022/06/26 10:37:39;;;;;;;;;;;21.70;99.90;;;;;;5022168;28;19916;-62
2022/06/26 10:40:11;;;;;;;;;;;21.40;99.90;;;;;;5016611;28;19913;-62
2022/06/26 10:42:54;;;;;;;;;;;21.50;99.90;;;;;;5021942;28;19914;-63
2022/06/26 10:45:25;;;;;;;;;;;21.50;99.90;;;;;;5013780;28;19976;-63
2022/06/26 10:47:52;;;;;;;;;;;21.60;99.90;;;;;;5025772;28;20451;-63
2022/06/26 10:50:23;;;;;;;;;;;21.80;99.90;;;;;;5019211;28;19919;-62
2022/06/26 10:52:49;;;;;;;;;;;22.10;99.90;;;;;;5017868;28;20436;-62
2022/06/26 10:55:14;;;;;;;;;;;22.70;99.90;;;;;;5019208;28;19964;-63
2022/06/26 10:57:40;;;;;;;;;;;24.00;99.90;;;;;;5023430;28;19909;-63
2022/06/26 11:00:07;;;;;;;;;;;25.20;98.70;;;;;;5022566;28;19924;-63
2022/06/26 11:02:37;;;;;;;;;;;24.90;96.90;;;;;;5024229;28;19932;-63
2022/06/26 11:05:03;;;;;;;;;;;25.50;96.90;;;;;;5027305;28;20272;-63
2022/06/26 11:07:39;;;;;;;;;;;25.50;95.70;;;;;;5012549;28;19910;-63
2022/06/26 11:10:07;;;;;;;;;;;25.70;95.60;;;;;;5026949;28;20383;-63
2022/06/26 11:12:39;;;;;;;;;;;25.60;95.70;;;;;;5029086;28;19914;-63
2022/06/26 11:15:05;;;;;;;;;;;26.60;92.80;;;;;;5026294;28;19953;-63
2022/06/26 11:17:30;;;;;;;;;;;27.20;93.50;;;;;;5028587;28;20329;-63
2022/06/26 11:22:41;;;;;;;;;;;28.30;90.10;;;;;;5025802;28;19940;-63
2022/06/26 11:25:08;;;;;;;;;;;29.20;87.20;;;;;;5024528;28;20238;-63
2022/06/26 11:27:33;;;;;;;;;;;29.20;85.00;;;;;;5023596;28;20369;-63
2022/06/26 11:29:59;;;;;;;;;;;29.00;84.10;;;;;;5028618;28;19917;-63
2022/06/26 11:32:25;;;;;;;;;;;28.30;84.40;;;;;;5025593;28;19980;-63
2022/06/26 11:34:52;;;;;;;;;;;27.60;85.70;;;;;;5048269;28;19913;-63
2022/06/26 11:37:30;;;;;;;;;;;26.50;86.50;;;;;;5050372;28;19915;-63
2022/06/26 11:39:56;;;;;;;;;;;26.80;88.20;;;;;;5026441;28;19909;-63
2022/06/26 11:42:24;;;;;;;;;;;26.70;89.50;;;;;;5010824;28;19967;-63
2022/06/26 11:44:50;;;;;;;;;;;27.50;86.60;;;;;;5029445;28;19983;-63
2022/06/26 11:47:16;;;;;;;;;;;26.80;88.20;;;;;;5030517;28;19916;-63
2022/06/26 11:49:42;;;;;;;;;;;26.60;87.60;;;;;;5029963;28;20372;-63
2022/06/26 11:52:08;;;;;;;;;;;26.30;88.90;;;;;;5026930;28;19909;-63
2022/06/26 11:54:34;;;;;;;;;;;25.70;90.10;;;;;;5012622;28;19913;-63
2022/06/26 11:57:07;;;;;;;;;;;25.70;90.50;;;;;;5012996;28;19931;-63
2022/06/26 11:59:32;;;;;;;;;;;25.60;89.80;;;;;;5029574;28;19913;-63
2022/06/26 12:01:58;;;;;;;;;;;25.50;88.70;;;;;;5027136;28;20270;-63
2022/06/26 12:04:23;;;;;;;;;;;25.60;90.10;;;;;;5005229;28;20269;-63
2022/06/26 12:06:50;;;;;;;;;;;25.90;90.10;;;;;;5026556;28;19913;-63
2022/06/26 12:09:20;;;;;;;;;;;26.20;90.50;;;;;;5019218;28;20288;-63
2022/06/26 12:11:47;;;;;;;;;;;26.60;88.50;;;;;;5007767;28;20313;-63
2022/06/26 12:14:15;;;;;;;;;;;26.30;90.20;;;;;;5001430;28;19925;-63
2022/06/26 12:16:44;;;;;;;;;;;26.30;89.50;;;;;;5026520;28;19921;-63
2022/06/26 12:19:10;;;;;;;;;;;25.70;90.00;;;;;;5026050;28;19914;-63
2022/06/26 12:21:35;;;;;;;;;;;25.40;89.60;;;;;;5025644;28;19913;-63
2022/06/26 12:24:01;;;;;;;;;;;25.40;90.10;;;;;;5026822;28;20019;-63
2022/06/26 12:26:28;;;;;;;;;;;25.30;90.30;;;;;;5023380;28;20381;-63
2022/06/26 12:29:00;;;;;;;;;;;25.50;90.40;;;;;;5023606;28;19914;-63
2022/06/26 12:31:25;;;;;;;;;;;25.70;88.90;;;;;;5019160;28;19924;-63
2022/06/26 12:33:51;;;;;;;;;;;25.70;90.10;;;;;;5008922;28;19924;-63
2022/06/26 12:36:17;;;;;;;;;;;26.20;90.00;;;;;;5020967;28;19917;-63
2022/06/26 12:38:43;;;;;;;;;;;26.50;88.60;;;;;;5022575;28;19917;-63
2022/06/26 12:41:16;;;;;;;;;;;25.40;89.20;;;;;;5022965;28;19921;-63
2022/06/26 12:43:48;;;;;;;;;;;25.20;91.30;;;;;;5019382;28;20020;-63
2022/06/26 12:46:14;;;;;;;;;;;24.60;91.40;;;;;;5008342;28;19920;-63
2022/06/26 12:48:40;;;;;;;;;;;24.20;92.80;;;;;;5015513;28;19917;-63
2022/06/26 12:51:05;;;;;;;;;;;24.30;93.20;;;;;;5024462;28;19913;-63
2022/06/26 12:53:31;;;;;;;;;;;24.60;92.70;;;;;;5025895;28;19918;-63
2022/06/26 12:55:57;;;;;;;;;;;24.70;92.60;;;;;;5026925;28;20080;-63
2022/06/26 12:58:23;;;;;;;;;;;24.80;92.70;;;;;;5026242;28;20012;-63
2022/06/26 13:00:49;;;;;;;;;;;24.40;92.90;;;;;;5026935;28;20000;-63
2022/06/26 13:03:16;;;;;;;;;;;24.60;93.10;;;;;;5003935;28;20204;-63
2022/06/26 13:05:42;;;;;;;;;;;24.50;93.20;;;;;;5026968;28;19987;-63
2022/06/26 13:08:08;;;;;;;;;;;23.90;93.50;;;;;;5024455;28;20435;-63
2022/06/26 13:10:34;;;;;;;;;;;23.90;94.30;;;;;;5025638;28;19959;-63
2022/06/26 13:13:00;;;;;;;;;;;23.70;94.50;;;;;;5024020;28;19952;-62
2022/06/26 13:15:25;;;;;;;;;;;23.70;94.70;;;;;;5025676;28;19913;-62
2022/06/26 13:17:51;;;;;;;;;;;23.90;94.40;;;;;;5026291;28;19909;-62
2022/06/26 13:20:16;;;;;;;;;;;23.60;95.30;;;;;;5025983;28;19913;-62
2022/06/26 13:22:42;;;;;;;;;;;23.60;95.50;;;;;;5008901;28;20507;-63
2022/06/26 13:25:07;;;;;;;;;;;23.60;95.80;;;;;;5023362;28;19917;-63
2022/06/26 13:27:33;;;;;;;;;;;23.70;95.80;;;;;;5007554;28;19913;-63
2022/06/26 13:29:59;;;;;;;;;;;24.10;96.50;;;;;;5026602;28;19920;-63
2022/06/26 13:32:24;;;;;;;;;;;24.50;94.50;;;;;;5018955;28;19918;-63
2022/06/26 13:34:50;;;;;;;;;;;24.50;93.60;;;;;;5008245;28;19963;-63
2022/06/26 13:37:17;;;;;;;;;;;24.60;93.50;;;;;;5025276;28;20274;-63
2022/06/26 13:39:42;;;;;;;;;;;24.60;93.80;;;;;;5004688;28;19924;-63
2022/06/26 13:42:08;;;;;;;;;;;24.30;93.00;;;;;;5023924;28;20365;-63
2022/06/26 13:44:33;;;;;;;;;;;24.10;93.50;;;;;;5017893;28;19921;-63
2022/06/26 13:46:59;;;;;;;;;;;23.90;95.00;;;;;;5023614;28;19917;-63
2022/06/26 13:49:24;;;;;;;;;;;23.60;96.70;;;;;;5024061;28;20321;-63
2022/06/26 13:51:50;;;;;;;;;;;23.40;99.90;;;;;;5024046;28;20192;-63
2022/06/26 13:54:15;;;;;;;;;;;23.00;99.90;;;;;;5021762;28;20292;-63
2022/06/26 13:56:41;;;;;;;;;;;22.40;99.90;;;;;;5025266;28;19918;-63
2022/06/26 13:59:06;;;;;;;;;;;22.10;99.90;;;;;;5020011;28;19920;-63
2022/06/26 14:01:32;;;;;;;;;;;22.10;99.90;;;;;;5023119;28;20493;-63
2022/06/26 14:03:57;;;;;;;;;;;22.40;99.90;;;;;;5025304;28;19917;-63
2022/06/26 14:06:23;;;;;;;;;;;22.80;99.90;;;;;;5025383;28;19909;-63
2022/06/26 14:08:49;;;;;;;;;;;23.10;99.90;;;;;;5001215;28;19959;-63
2022/06/26 14:11:14;;;;;;;;;;;23.30;99.90;;;;;;5007862;28;19913;-63
2022/06/26 14:13:40;;;;;;;;;;;23.60;99.90;;;;;;5025641;28;20380;-63
2022/06/26 14:16:06;;;;;;;;;;;23.20;99.90;;;;;;5007579;28;20383;-63
2022/06/26 14:18:31;;;;;;;;;;;23.50;99.90;;;;;;5016493;28;20398;-63
2022/06/26 14:20:57;;;;;;;;;;;23.90;99.90;;;;;;5025891;28;20517;-63
2022/06/26 14:26:06;;;;;;;;;;;24.00;99.90;;;;;;5025509;28;19975;-63
2022/06/26 14:28:33;;;;;;;;;;;23.30;99.90;;;;;;5018002;28;19917;-63